createdAt,value
2022-11-29T00:02:07.300Z,6.27
2022-11-29T00:04:33.600Z,6.48
2022-11-29T00:06:59.808Z,6.35
2022-11-29T00:09:26.020Z,6.53
2022-11-29T00:11:52.276Z,6.57
2022-11-29T00:14:18.506Z,6.58
2022-11-29T00:16:44.804Z,6.62
2022-11-29T00:19:11.148Z,6.67
2022-11-29T00:21:37.410Z,6.72
2022-11-29T00:24:03.634Z,6.77
2022-11-29T00:26:29.887Z,6.82
2022-11-29T00:28:56.108Z,6.86
2022-11-29T00:31:22.417Z,6.80
2022-11-29T00:33:48.702Z,6.26
2022-11-29T00:36:14.935Z,6.33
2022-11-29T00:38:41.244Z,6.41
2022-11-29T00:41:07.476Z,6.42
2022-11-29T00:43:33.723Z,6.45
2022-11-29T00:45:59.978Z,5.65
2022-11-29T00:48:26.307Z,6.04
2022-11-29T00:50:52.525Z,5.68
2022-11-29T00:53:18.777Z,5.21
2022-11-29T00:55:44.999Z,4.72
2022-11-29T00:58:11.217Z,4.77
2022-11-29T01:00:37.465Z,5.23
2022-11-29T01:03:03.680Z,5.48
2022-11-29T01:05:29.917Z,5.71
2022-11-29T01:07:56.226Z,5.54
2022-11-29T01:10:22.483Z,5.79
2022-11-29T01:12:48.713Z,5.92
2022-11-29T01:15:14.940Z,5.96
2022-11-29T01:17:41.178Z,6.01
2022-11-29T01:20:07.394Z,6.03
2022-11-29T01:22:33.613Z,6.07
2022-11-29T01:24:59.857Z,6.15
2022-11-29T01:27:26.091Z,6.14
2022-11-29T01:29:52.323Z,6.06
2022-11-29T01:32:18.581Z,6.03
2022-11-29T01:34:45.044Z,6.02
2022-11-29T01:37:11.443Z,5.95
2022-11-29T01:39:37.664Z,6.06
2022-11-29T01:42:03.895Z,5.94
2022-11-29T01:44:30.144Z,5.92
2022-11-29T01:46:56.442Z,5.86
2022-11-29T01:49:22.848Z,5.93
2022-11-29T01:51:49.079Z,5.97
2022-11-29T01:54:15.326Z,6.00
2022-11-29T01:56:41.555Z,5.94
2022-11-29T01:59:07.846Z,5.83
2022-11-29T02:01:34.169Z,5.86
2022-11-29T02:04:00.440Z,5.87
2022-11-29T02:06:26.684Z,5.77
2022-11-29T02:08:52.934Z,5.72
2022-11-29T02:11:19.169Z,5.74
2022-11-29T02:13:45.395Z,5.73
2022-11-29T02:16:11.660Z,5.72
2022-11-29T02:18:37.920Z,5.69
2022-11-29T02:21:04.150Z,5.71
2022-11-29T02:23:30.377Z,5.65
2022-11-29T02:25:56.592Z,5.64
2022-11-29T02:28:22.838Z,5.64
2022-11-29T02:30:49.113Z,5.67
2022-11-29T02:33:15.351Z,5.63
2022-11-29T02:35:41.577Z,5.62
2022-11-29T02:38:07.808Z,5.64
2022-11-29T02:40:34.053Z,5.67
2022-11-29T02:43:00.321Z,5.63
2022-11-29T02:45:28.126Z,5.55
2022-11-29T02:47:54.378Z,5.50
2022-11-29T02:50:20.609Z,5.49
2022-11-29T02:52:46.886Z,5.49
2022-11-29T02:55:13.100Z,5.49
2022-11-29T02:57:39.336Z,5.42
2022-11-29T03:00:05.580Z,5.44
2022-11-29T03:02:31.852Z,5.37
2022-11-29T03:04:58.115Z,5.35
2022-11-29T03:07:24.392Z,5.42
2022-11-29T03:09:50.670Z,5.36
2022-11-29T03:12:16.899Z,5.39
2022-11-29T03:14:43.457Z,5.33
2022-11-29T03:17:09.984Z,5.37
2022-11-29T03:19:36.207Z,5.40
2022-11-29T03:22:02.452Z,5.34
2022-11-29T03:24:28.685Z,5.31
2022-11-29T03:26:54.971Z,5.34
2022-11-29T03:29:21.319Z,5.21
2022-11-29T03:31:47.620Z,5.16
2022-11-29T03:34:13.906Z,5.11
2022-11-29T03:36:40.155Z,5.29
2022-11-29T03:39:06.367Z,5.25
2022-11-29T03:41:32.589Z,5.22
2022-11-29T03:43:58.807Z,5.25
2022-11-29T03:46:25.077Z,5.16
2022-11-29T03:48:51.341Z,5.06
2022-11-29T03:51:17.570Z,4.99
2022-11-29T03:53:43.791Z,5.04
2022-11-29T03:56:10.007Z,5.12
2022-11-29T03:58:36.236Z,5.13
2022-11-29T04:01:02.473Z,5.17
2022-11-29T04:03:28.726Z,5.18
2022-11-29T04:05:54.965Z,5.16
2022-11-29T04:08:21.351Z,5.12
2022-11-29T04:10:47.571Z,5.08
2022-11-29T04:13:33.997Z,5.06
2022-11-29T04:16:17.347Z,4.93
2022-11-29T04:18:43.641Z,4.67
2022-11-29T04:21:09.859Z,4.79
2022-11-29T04:23:36.099Z,4.77
2022-11-29T04:26:02.340Z,4.81
2022-11-29T04:28:28.576Z,4.83
2022-11-29T04:30:54.834Z,4.77
2022-11-29T04:33:21.062Z,4.79
2022-11-29T04:35:47.278Z,4.82
2022-11-29T04:38:13.493Z,4.85
2022-11-29T04:40:39.713Z,4.91
2022-11-29T04:43:05.945Z,4.90
2022-11-29T04:45:32.195Z,4.91
2022-11-29T04:47:58.432Z,4.93
2022-11-29T04:50:24.652Z,4.94
2022-11-29T04:52:50.881Z,4.84
2022-11-29T04:55:23.779Z,4.82
2022-11-29T04:57:54.038Z,4.94
2022-11-29T05:00:20.271Z,4.91
2022-11-29T05:02:46.584Z,4.90
2022-11-29T05:05:12.830Z,4.94
2022-11-29T05:07:39.115Z,4.87
2022-11-29T05:10:05.402Z,4.82
2022-11-29T05:12:31.656Z,4.84
2022-11-29T05:14:57.875Z,4.90
2022-11-29T05:19:50.635Z,4.84
2022-11-29T05:22:16.871Z,4.70
2022-11-29T05:24:43.443Z,4.73
2022-11-29T05:27:09.942Z,4.73
2022-11-29T05:29:36.215Z,4.71
2022-11-29T05:32:02.466Z,4.82
2022-11-29T05:34:34.568Z,4.80
2022-11-29T05:37:01.291Z,4.97
2022-11-29T05:39:27.541Z,4.92
2022-11-29T05:41:53.795Z,4.91
2022-11-29T05:44:20.017Z,4.88
2022-11-29T05:46:46.290Z,4.91
2022-11-29T05:49:12.554Z,4.95
2022-11-29T05:51:38.772Z,4.89
2022-11-29T05:54:05.012Z,4.73
2022-11-29T05:56:31.262Z,4.93
2022-11-29T05:58:57.481Z,4.91
2022-11-29T06:01:23.733Z,4.81
2022-11-29T06:03:49.982Z,4.65
2022-11-29T06:06:16.226Z,4.73
2022-11-29T06:08:42.505Z,4.78
2022-11-29T06:11:08.724Z,4.78
2022-11-29T06:13:34.964Z,4.80
2022-11-29T06:16:01.297Z,4.77
2022-11-29T06:18:27.665Z,4.82
2022-11-29T06:20:53.998Z,4.86
2022-11-29T06:23:20.234Z,4.84
2022-11-29T06:25:46.488Z,4.96
2022-11-29T06:28:12.729Z,4.94
2022-11-29T06:30:38.956Z,4.89
2022-11-29T06:33:05.184Z,4.90
2022-11-29T06:35:31.436Z,4.41
2022-11-29T06:37:57.685Z,4.60
2022-11-29T06:40:23.936Z,4.83
2022-11-29T06:42:52.512Z,4.87
2022-11-29T06:45:18.739Z,4.90
2022-11-29T06:47:45.005Z,4.92
2022-11-29T06:50:11.244Z,4.88
2022-11-29T06:52:37.486Z,4.97
2022-11-29T06:55:03.722Z,4.99
2022-11-29T06:57:29.955Z,5.01
2022-11-29T06:59:56.200Z,4.97
2022-11-29T07:02:22.494Z,5.05
2022-11-29T07:04:48.980Z,5.11
2022-11-29T07:07:15.526Z,5.15
2022-11-29T07:09:41.824Z,5.07
2022-11-29T07:12:08.058Z,5.02
2022-11-29T07:14:34.289Z,5.05
2022-11-29T07:17:00.529Z,5.05
2022-11-29T07:19:26.780Z,5.07
2022-11-29T07:21:53.020Z,5.04
2022-11-29T07:24:19.334Z,5.05
2022-11-29T07:26:46.602Z,5.07
2022-11-29T07:29:12.901Z,5.06
2022-11-29T07:31:39.205Z,5.04
2022-11-29T07:34:05.485Z,5.04
2022-11-29T07:36:31.733Z,5.15
2022-11-29T07:38:57.994Z,5.07
2022-11-29T07:41:24.265Z,5.11
2022-11-29T07:43:50.496Z,5.13
2022-11-29T07:46:16.765Z,5.11
2022-11-29T07:48:43.042Z,5.06
2022-11-29T07:51:09.340Z,5.06
2022-11-29T07:53:35.601Z,5.03
2022-11-29T07:56:01.867Z,5.12
2022-11-29T07:58:28.165Z,5.06
2022-11-29T08:00:54.500Z,5.07
2022-11-29T08:03:20.837Z,5.14
2022-11-29T08:05:47.118Z,5.17
2022-11-29T08:08:13.389Z,5.23
2022-11-29T08:10:39.626Z,5.34
2022-11-29T08:13:05.868Z,5.40
2022-11-29T08:15:32.114Z,5.38
2022-11-29T08:17:58.357Z,5.40
2022-11-29T08:20:24.674Z,5.53
2022-11-29T08:22:50.985Z,5.64
2022-11-29T08:25:17.421Z,5.76
2022-11-29T08:27:43.709Z,5.77
2022-11-29T08:30:10.013Z,5.83
2022-11-29T08:32:36.401Z,5.87
2022-11-29T08:35:02.654Z,5.95
2022-11-29T08:37:29.071Z,5.91
2022-11-29T08:39:55.364Z,5.99
2022-11-29T08:42:21.698Z,6.19
2022-11-29T08:44:48.092Z,6.21
2022-11-29T08:47:14.461Z,6.12
2022-11-29T08:49:40.719Z,6.12
2022-11-29T08:52:06.953Z,6.16
2022-11-29T08:54:33.201Z,6.29
2022-11-29T08:57:31.510Z,6.29
2022-11-29T08:59:45.702Z,6.34
2022-11-29T09:02:11.976Z,6.35
2022-11-29T09:04:38.220Z,6.20
2022-11-29T09:07:05.672Z,6.13
2022-11-29T09:09:32.058Z,6.21
2022-11-29T09:11:58.318Z,6.35
2022-11-29T09:14:24.578Z,6.52
2022-11-29T09:16:50.847Z,6.43
2022-11-29T09:19:17.125Z,6.41
2022-11-29T09:21:43.390Z,6.39
2022-11-29T09:24:09.633Z,6.33
2022-11-29T09:26:35.885Z,6.22
2022-11-29T09:29:02.142Z,6.11
2022-11-29T09:31:28.461Z,6.23
2022-11-29T09:33:54.725Z,6.21
2022-11-29T09:36:26.557Z,6.29
2022-11-29T09:38:54.613Z,6.46
2022-11-29T09:41:20.914Z,6.45
2022-11-29T09:43:47.149Z,6.51
2022-11-29T09:46:13.445Z,6.54
2022-11-29T09:48:39.828Z,6.70
2022-11-29T09:51:06.062Z,6.72
2022-11-29T09:53:32.323Z,6.67
2022-11-29T09:55:58.622Z,6.77
2022-11-29T09:58:24.946Z,6.75
2022-11-29T10:00:51.219Z,6.83
2022-11-29T10:03:17.548Z,6.75
2022-11-29T10:05:43.864Z,6.87
2022-11-29T10:08:10.116Z,6.94
2022-11-29T10:10:36.387Z,7.01
2022-11-29T10:13:02.663Z,6.88
2022-11-29T10:15:29.219Z,6.96
2022-11-29T10:17:55.639Z,7.06
2022-11-29T10:20:22.067Z,7.06
2022-11-29T10:22:52.308Z,7.14
2022-11-29T10:25:18.910Z,7.18
2022-11-29T10:27:45.218Z,7.15
2022-11-29T10:30:11.475Z,7.22
2022-11-29T10:32:37.712Z,7.23
2022-11-29T10:35:04.076Z,7.32
2022-11-29T10:37:30.339Z,7.39
2022-11-29T10:39:56.609Z,7.42
2022-11-29T10:42:22.958Z,7.56
2022-11-29T10:44:49.199Z,7.50
2022-11-29T10:47:15.432Z,7.51
2022-11-29T10:49:41.661Z,7.54
2022-11-29T10:52:07.922Z,7.50
2022-11-29T10:54:34.209Z,7.61
2022-11-29T10:57:00.474Z,7.75
2022-11-29T10:59:26.742Z,7.72
2022-11-29T11:01:53.033Z,7.66
2022-11-29T11:04:19.442Z,7.79
2022-11-29T11:06:45.712Z,7.79
2022-11-29T11:09:11.933Z,7.80
2022-11-29T11:11:38.192Z,7.94
2022-11-29T11:14:04.430Z,7.89
2022-11-29T11:16:36.793Z,7.97
2022-11-29T11:19:03.766Z,8.01
2022-11-29T11:21:30.052Z,8.07
2022-11-29T11:23:56.290Z,8.05
2022-11-29T11:26:22.522Z,8.02
2022-11-29T11:28:48.801Z,8.17
2022-11-29T11:31:15.079Z,8.11
2022-11-29T11:33:41.379Z,8.14
2022-11-29T11:36:07.629Z,8.23
2022-11-29T11:38:33.909Z,8.32
2022-11-29T11:41:00.146Z,8.40
2022-11-29T11:43:26.414Z,8.25
2022-11-29T11:45:52.733Z,8.44
2022-11-29T11:48:18.999Z,8.52
2022-11-29T11:50:45.216Z,8.57
2022-11-29T11:53:11.508Z,8.61
2022-11-29T11:55:37.743Z,8.69
2022-11-29T11:58:09.801Z,8.64
2022-11-29T12:01:02.351Z,8.68
2022-11-29T12:03:23.120Z,8.77
2022-11-29T12:05:49.417Z,8.63
2022-11-29T12:08:15.763Z,8.64
2022-11-29T12:10:42.075Z,8.70
2022-11-29T12:13:08.335Z,8.71
2022-11-29T12:15:34.681Z,8.68
2022-11-29T12:18:01.381Z,8.66
2022-11-29T12:20:27.629Z,8.62
2022-11-29T12:22:53.884Z,8.56
2022-11-29T12:25:20.166Z,8.47
2022-11-29T12:27:46.409Z,8.41
2022-11-29T12:30:12.777Z,8.37
2022-11-29T12:32:39.080Z,8.44
2022-11-29T12:35:05.329Z,8.28
2022-11-29T12:37:31.587Z,8.47
2022-11-29T12:39:57.844Z,8.45
2022-11-29T12:42:24.087Z,8.33
2022-11-29T12:44:50.337Z,7.86
2022-11-29T12:50:02.810Z,8.12
2022-11-29T12:52:29.064Z,8.14
2022-11-29T12:54:55.425Z,8.12
2022-11-29T12:57:21.815Z,8.23
2022-11-29T12:59:48.095Z,8.21
2022-11-29T13:02:14.399Z,8.19
2022-11-29T13:04:40.735Z,8.19
2022-11-29T13:07:07.064Z,8.06
2022-11-29T13:09:33.325Z,8.08
2022-11-29T13:12:01.026Z,8.04
2022-11-29T13:14:43.863Z,7.97
2022-11-29T13:17:10.559Z,7.92
2022-11-29T13:19:36.834Z,8.08
2022-11-29T13:22:03.097Z,8.17
2022-11-29T13:24:29.360Z,7.77
2022-11-29T13:26:55.604Z,7.84
2022-11-29T13:29:21.845Z,7.86
2022-11-29T13:31:48.099Z,7.79
2022-11-29T13:34:14.367Z,7.79
2022-11-29T13:36:40.649Z,7.81
2022-11-29T13:39:06.946Z,7.84
2022-11-29T13:41:33.308Z,7.83
2022-11-29T13:43:59.609Z,7.74
2022-11-29T13:46:25.856Z,7.58
2022-11-29T13:48:52.118Z,7.60
2022-11-29T13:51:18.361Z,7.62
2022-11-29T13:53:48.794Z,7.56
2022-11-29T13:56:15.794Z,7.47
2022-11-29T13:58:42.071Z,7.48
2022-11-29T14:01:08.346Z,7.37
2022-11-29T14:03:34.596Z,7.38
2022-11-29T14:06:00.854Z,7.40
2022-11-29T14:08:47.733Z,7.41
2022-11-29T14:11:16.228Z,7.47
2022-11-29T14:13:42.540Z,7.38
2022-11-29T14:16:08.908Z,7.35
2022-11-29T14:18:35.199Z,7.35
2022-11-29T14:21:01.564Z,7.27
2022-11-29T14:23:27.792Z,7.33
2022-11-29T14:25:54.129Z,7.18
2022-11-29T14:28:20.366Z,7.06
2022-11-29T14:30:46.600Z,7.08
2022-11-29T14:33:12.871Z,7.07
2022-11-29T14:35:39.092Z,7.05
2022-11-29T14:38:05.331Z,6.84
2022-11-29T14:40:31.578Z,6.92
2022-11-29T14:42:57.828Z,6.91
2022-11-29T14:45:24.072Z,6.97
2022-11-29T14:47:50.420Z,6.98
2022-11-29T14:50:19.336Z,6.97
2022-11-29T14:52:45.582Z,7.05
2022-11-29T14:55:11.928Z,7.01
2022-11-29T14:57:38.198Z,6.92
2022-11-29T15:00:04.446Z,6.92
2022-11-29T15:02:30.760Z,6.87
2022-11-29T15:04:57.036Z,6.87
2022-11-29T15:07:24.632Z,6.84
2022-11-29T15:09:50.944Z,6.84
2022-11-29T15:12:17.195Z,6.80
2022-11-29T15:14:43.797Z,6.71
2022-11-29T15:17:10.318Z,6.73
2022-11-29T15:19:36.584Z,6.79
2022-11-29T15:22:03.058Z,6.79
2022-11-29T15:24:29.272Z,6.75
2022-11-29T15:26:55.539Z,6.72
2022-11-29T15:29:21.803Z,6.74
2022-11-29T15:31:48.051Z,6.68
2022-11-29T15:34:17.274Z,6.63
2022-11-29T15:36:43.722Z,6.61
2022-11-29T15:39:10.050Z,6.71
2022-11-29T15:41:36.370Z,6.60
2022-11-29T15:44:02.621Z,6.57
2022-11-29T15:46:29.228Z,6.54
2022-11-29T15:48:55.599Z,6.52
2022-11-29T15:51:21.832Z,6.49
2022-11-29T15:53:48.122Z,6.56
2022-11-29T15:56:16.297Z,6.51
2022-11-29T15:58:42.550Z,6.56
2022-11-29T16:01:08.872Z,6.56
2022-11-29T16:03:35.133Z,6.43
2022-11-29T16:06:01.380Z,6.43
2022-11-29T16:08:27.701Z,6.43
2022-11-29T16:10:53.970Z,6.36
2022-11-29T16:13:20.237Z,6.51
2022-11-29T16:15:46.744Z,6.51
2022-11-29T16:18:13.019Z,6.50
2022-11-29T16:20:39.304Z,6.50
2022-11-29T16:23:05.605Z,6.48
2022-11-29T16:25:36.127Z,6.58
2022-11-29T16:28:03.721Z,6.53
2022-11-29T16:30:30.004Z,6.42
2022-11-29T16:32:56.284Z,6.29
2022-11-29T16:35:22.528Z,6.27
2022-11-29T16:37:48.814Z,6.29
2022-11-29T16:40:15.047Z,6.30
2022-11-29T16:42:41.298Z,6.30
2022-11-29T16:45:07.567Z,6.38
2022-11-29T16:47:33.802Z,6.38
2022-11-29T16:50:00.072Z,6.38
2022-11-29T16:52:26.307Z,6.45
2022-11-29T16:54:52.539Z,6.42
2022-11-29T16:57:18.789Z,6.47
2022-11-29T16:59:45.022Z,6.43
2022-11-29T17:02:11.316Z,6.42
2022-11-29T17:04:37.576Z,6.18
2022-11-29T17:07:03.797Z,6.28
2022-11-29T17:09:30.022Z,6.28
2022-11-29T17:11:56.240Z,6.27
2022-11-29T17:14:22.703Z,6.30
2022-11-29T17:16:49.086Z,6.27
2022-11-29T17:19:15.389Z,6.26
2022-11-29T17:21:41.645Z,6.23
2022-11-29T17:24:07.889Z,6.28
2022-11-29T17:26:34.130Z,6.32
2022-11-29T17:29:00.366Z,6.29
2022-11-29T17:31:26.686Z,6.42
2022-11-29T17:33:52.970Z,6.32
2022-11-29T17:36:19.213Z,6.42
2022-11-29T17:38:45.562Z,6.36
2022-11-29T17:41:11.829Z,6.26
2022-11-29T17:43:38.064Z,6.25
2022-11-29T17:46:04.434Z,6.21
2022-11-29T17:48:33.589Z,6.06
2022-11-29T17:51:00.075Z,6.13
2022-11-29T17:53:26.406Z,6.17
2022-11-29T17:55:52.688Z,6.16
2022-11-29T17:58:18.920Z,6.30
2022-11-29T18:00:45.209Z,6.17
2022-11-29T18:03:11.457Z,6.15
2022-11-29T18:05:37.677Z,6.24
2022-11-29T18:08:03.994Z,6.27
2022-11-29T18:10:30.271Z,6.34
2022-11-29T18:12:56.511Z,6.30
2022-11-29T18:15:22.813Z,6.31
2022-11-29T18:17:49.045Z,6.39
2022-11-29T18:20:15.254Z,6.42
2022-11-29T18:22:41.551Z,6.41
2022-11-29T18:25:37.055Z,6.33
2022-11-29T18:27:54.105Z,6.31
2022-11-29T18:30:20.349Z,6.39
2022-11-29T18:32:46.589Z,6.36
2022-11-29T18:35:12.874Z,6.40
2022-11-29T18:38:12.695Z,6.41
2022-11-29T18:40:25.441Z,6.30
2022-11-29T18:42:51.697Z,6.31
2022-11-29T18:45:17.973Z,6.34
2022-11-29T18:47:44.194Z,6.38
2022-11-29T18:50:10.488Z,6.45
2022-11-29T18:52:40.721Z,6.45
2022-11-29T18:55:07.142Z,6.54
2022-11-29T18:57:33.425Z,6.50
2022-11-29T18:59:59.672Z,6.53
2022-11-29T19:02:25.962Z,6.52
2022-11-29T19:04:52.249Z,6.52
2022-11-29T19:07:18.568Z,6.63
2022-11-29T19:09:44.854Z,6.53
2022-11-29T19:12:11.087Z,6.51
2022-11-29T19:14:37.308Z,6.36
2022-11-29T19:17:03.525Z,6.43
2022-11-29T19:19:29.769Z,6.36
2022-11-29T19:21:56.009Z,6.27
2022-11-29T19:24:22.248Z,6.16
2022-11-29T19:26:48.678Z,6.31
2022-11-29T19:29:14.947Z,6.33
2022-11-29T19:31:41.245Z,6.39
2022-11-29T19:34:07.516Z,6.34
2022-11-29T19:36:33.779Z,6.26
2022-11-29T19:39:00.030Z,6.20
2022-11-29T19:41:26.341Z,6.23
2022-11-29T19:43:52.594Z,6.29
2022-11-29T19:46:18.989Z,6.14
2022-11-29T19:48:45.314Z,6.08
2022-11-29T19:51:11.563Z,6.07
2022-11-29T19:53:37.818Z,6.11
2022-11-29T19:56:04.147Z,6.20
2022-11-29T19:58:30.396Z,6.33
2022-11-29T20:00:56.652Z,6.35
2022-11-29T20:03:22.872Z,6.32
2022-11-29T20:05:49.115Z,6.34
2022-11-29T20:08:21.030Z,6.28
2022-11-29T20:10:47.702Z,6.21
2022-11-29T20:13:13.960Z,6.25
2022-11-29T20:15:40.244Z,6.27
2022-11-29T20:18:06.567Z,6.22
2022-11-29T20:20:32.912Z,6.15
2022-11-29T20:22:59.170Z,6.22
2022-11-29T20:25:25.401Z,6.24
2022-11-29T20:27:51.735Z,6.23
2022-11-29T20:30:18.019Z,6.12
2022-11-29T20:32:44.258Z,6.21
2022-11-29T20:35:10.544Z,6.24
2022-11-29T20:37:36.781Z,6.21
2022-11-29T20:40:03.017Z,6.23
2022-11-29T20:42:29.316Z,6.22
2022-11-29T20:44:55.574Z,6.22
2022-11-29T20:47:21.809Z,6.05
2022-11-29T20:49:48.334Z,6.10
2022-11-29T20:52:14.791Z,6.18
2022-11-29T20:54:41.036Z,6.20
2022-11-29T20:57:07.270Z,6.17
2022-11-29T20:59:33.540Z,6.12
2022-11-29T21:01:59.832Z,6.18
2022-11-29T21:04:26.133Z,6.00
2022-11-29T21:06:52.357Z,6.03
2022-11-29T21:09:18.568Z,6.06
2022-11-29T21:11:44.813Z,6.07
2022-11-29T21:14:11.048Z,6.08
2022-11-29T21:16:37.269Z,5.99
2022-11-29T21:19:03.520Z,5.99
2022-11-29T21:21:29.775Z,5.99
2022-11-29T21:23:56.013Z,5.98
2022-11-29T21:26:22.237Z,5.97
2022-11-29T21:28:50.185Z,5.97
2022-11-29T21:31:16.501Z,5.95
2022-11-29T21:33:42.751Z,5.87
2022-11-29T21:36:08.978Z,5.85
2022-11-29T21:38:35.225Z,5.92
2022-11-29T21:41:01.489Z,5.99
2022-11-29T21:43:57.783Z,5.90
2022-11-29T21:46:14.060Z,5.79
2022-11-29T21:48:40.346Z,5.70
2022-11-29T21:51:06.589Z,5.52
2022-11-29T21:53:32.801Z,5.63
2022-11-29T21:55:59.041Z,5.71
2022-11-29T21:58:25.260Z,5.47
2022-11-29T22:00:51.482Z,5.54
2022-11-29T22:03:17.734Z,5.65
2022-11-29T22:05:43.975Z,5.47
2022-11-29T22:08:10.191Z,5.49
2022-11-29T22:10:37.149Z,5.27
2022-11-29T22:13:03.387Z,5.12
2022-11-29T22:15:29.610Z,5.24
2022-11-29T22:17:55.863Z,5.28
2022-11-29T22:20:22.080Z,5.33
2022-11-29T22:22:48.316Z,5.35
2022-11-29T22:25:14.546Z,5.20
2022-11-29T22:27:40.794Z,5.28
2022-11-29T22:30:07.028Z,5.35
2022-11-29T22:32:33.293Z,5.35
2022-11-29T22:34:59.542Z,5.39
2022-11-29T22:37:25.771Z,5.28
2022-11-29T22:39:52.030Z,5.33
2022-11-29T22:42:18.271Z,5.38
2022-11-29T22:44:44.744Z,5.37
2022-11-29T22:47:11.334Z,5.38
2022-11-29T22:49:37.581Z,5.39
2022-11-29T22:52:03.837Z,5.39
2022-11-29T22:54:30.083Z,5.18
2022-11-29T22:56:56.323Z,5.05
2022-11-29T22:59:22.540Z,5.07
2022-11-29T23:01:48.998Z,4.74
2022-11-29T23:04:15.272Z,4.85
2022-11-29T23:06:41.513Z,4.76
2022-11-29T23:09:07.817Z,4.83
2022-11-29T23:11:34.045Z,4.75
2022-11-29T23:14:00.321Z,4.68
2022-11-29T23:16:26.626Z,4.56
2022-11-29T23:18:52.926Z,4.38
2022-11-29T23:21:19.147Z,4.42
2022-11-29T23:23:45.384Z,4.24
2022-11-29T23:26:11.636Z,4.32
2022-11-29T23:28:37.871Z,4.27
2022-11-29T23:31:04.094Z,4.23
2022-11-29T23:33:30.301Z,4.06
2022-11-29T23:35:56.509Z,4.20
2022-11-29T23:38:22.732Z,4.08
2022-11-29T23:40:48.954Z,4.25
2022-11-29T23:43:15.203Z,4.23
2022-11-29T23:45:41.486Z,4.12
2022-11-29T23:48:07.734Z,4.05
2022-11-29T23:50:33.962Z,3.99
2022-11-29T23:53:00.345Z,4.09
2022-11-29T23:55:26.588Z,4.19
2022-11-29T23:57:52.844Z,4.20
